createdAt,value
2023-02-11T00:00:21.998Z,28.92
2023-02-11T00:02:48.635Z,28.05
2023-02-11T00:05:15.402Z,30.98
2023-02-11T00:07:42.139Z,28.83
2023-02-11T00:10:09.383Z,27.30
2023-02-11T00:12:37.459Z,25.52
2023-02-11T00:15:06.059Z,27.85
2023-02-11T00:17:32.888Z,26.30
2023-02-11T00:19:59.549Z,28.15
2023-02-11T00:22:26.488Z,28.40
2023-02-11T00:24:53.114Z,28.45
2023-02-11T00:27:19.981Z,29.92
2023-02-11T00:29:46.632Z,32.88
2023-02-11T00:32:13.304Z,37.22
2023-02-11T00:34:39.982Z,33.60
2023-02-11T00:37:06.635Z,27.42
2023-02-11T00:39:33.231Z,31.98
2023-02-11T00:41:59.844Z,28.67
2023-02-11T00:44:26.523Z,32.22
2023-02-11T00:46:53.116Z,33.47
2023-02-11T00:49:19.702Z,31.65
2023-02-11T00:51:46.355Z,28.10
2023-02-11T00:54:13.280Z,26.65
2023-02-11T00:56:39.901Z,24.50
2023-02-11T00:59:06.529Z,28.42
2023-02-11T01:01:33.256Z,28.08
2023-02-11T01:04:00.145Z,30.60
2023-02-11T01:06:26.768Z,31.40
2023-02-11T01:08:53.392Z,27.67
2023-02-11T01:11:21.275Z,28.55
2023-02-11T01:13:49.931Z,29.77
2023-02-11T01:16:17.809Z,27.33
2023-02-11T01:18:46.163Z,34.83
2023-02-11T01:21:12.845Z,26.35
2023-02-11T01:23:39.417Z,31.52
2023-02-11T01:26:06.697Z,26.58
2023-02-11T01:28:33.729Z,30.90
2023-02-11T01:31:02.290Z,26.65
2023-02-11T01:33:29.117Z,31.52
2023-02-11T01:35:55.840Z,30.88
2023-02-11T01:38:25.040Z,24.98
2023-02-11T01:40:56.413Z,30.98
2023-02-11T01:43:24.793Z,32.72
2023-02-11T01:46:00.238Z,32.05
2023-02-11T01:48:34.639Z,31.38
2023-02-11T01:51:16.646Z,32.97
2023-02-11T01:54:04.460Z,40.03
2023-02-11T01:56:50.070Z,33.30
2023-02-11T01:59:32.232Z,34.38
2023-02-11T02:02:03.553Z,30.83
2023-02-11T02:04:36.017Z,31.43
2023-02-11T02:07:08.901Z,30.65
2023-02-11T02:09:42.015Z,32.90
2023-02-11T02:12:08.780Z,30.33
2023-02-11T02:14:39.664Z,35.00
2023-02-11T02:17:06.997Z,33.22
2023-02-11T02:19:39.956Z,29.67
2023-02-11T02:22:34.947Z,30.35
2023-02-11T02:25:29.400Z,35.08
2023-02-11T02:28:08.205Z,31.13
2023-02-11T02:30:53.723Z,31.48
2023-02-11T02:33:25.371Z,30.95
2023-02-11T02:35:57.791Z,32.90
2023-02-11T02:38:39.333Z,33.33
2023-02-11T02:41:12.998Z,27.95
2023-02-11T02:43:43.824Z,34.33
2023-02-11T02:46:11.721Z,31.45
2023-02-11T02:48:38.759Z,33.22
2023-02-11T02:51:08.343Z,37.63
2023-02-11T02:53:56.093Z,32.55
2023-02-11T02:56:35.756Z,36.00
2023-02-11T02:59:11.394Z,34.63
2023-02-11T03:01:56.770Z,33.80
2023-02-11T03:05:04.378Z,34.85
2023-02-11T03:07:58.903Z,35.65
2023-02-11T03:10:31.112Z,31.70
2023-02-11T03:12:58.764Z,35.25
2023-02-11T03:15:28.541Z,26.95
2023-02-11T03:17:58.810Z,31.88
2023-02-11T03:20:27.328Z,31.17
2023-02-11T03:23:15.783Z,27.60
2023-02-11T03:25:50.689Z,27.25
2023-02-11T03:28:23.347Z,43.35
2023-02-11T03:30:57.036Z,32.20
2023-02-11T03:33:38.946Z,29.50
2023-02-11T03:36:15.224Z,30.63
2023-02-11T03:38:54.142Z,30.85
2023-02-11T03:41:24.172Z,37.58
2023-02-11T03:43:54.584Z,30.80
2023-02-11T03:46:28.155Z,30.63
2023-02-11T03:48:59.294Z,29.83
2023-02-11T03:51:28.496Z,39.40
2023-02-11T03:53:58.573Z,30.88
2023-02-11T03:56:29.137Z,31.20
2023-02-11T03:58:56.062Z,31.30
2023-02-11T04:01:22.955Z,30.67
2023-02-11T04:03:49.837Z,34.72
2023-02-11T04:06:16.522Z,30.92
2023-02-11T04:08:43.159Z,30.65
2023-02-11T04:11:09.756Z,34.65
2023-02-11T04:13:36.391Z,33.65
2023-02-11T04:16:03.230Z,32.17
2023-02-11T04:18:29.926Z,28.70
2023-02-11T04:20:56.634Z,34.35
2023-02-11T04:23:23.288Z,32.58
2023-02-11T04:25:50.596Z,31.88
2023-02-11T04:28:17.389Z,27.88
2023-02-11T04:30:44.015Z,34.40
2023-02-11T04:33:10.628Z,32.90
2023-02-11T04:35:37.289Z,30.42
2023-02-11T04:38:03.881Z,27.15
2023-02-11T04:40:30.629Z,32.00
2023-02-11T04:42:57.331Z,36.53
2023-02-11T04:45:24.217Z,29.65
2023-02-11T04:47:50.925Z,30.45
2023-02-11T04:50:17.958Z,35.30
2023-02-11T04:52:44.597Z,33.10
2023-02-11T04:55:11.703Z,35.22
2023-02-11T04:57:38.415Z,36.72
2023-02-11T05:00:06.024Z,37.63
2023-02-11T05:02:32.608Z,33.65
2023-02-11T05:04:59.210Z,31.50
2023-02-11T05:07:25.803Z,31.23
2023-02-11T05:09:52.411Z,31.40
2023-02-11T05:12:19.016Z,32.88
2023-02-11T05:14:45.712Z,38.30
2023-02-11T05:17:12.448Z,35.22
2023-02-11T05:19:39.118Z,38.63
2023-02-11T05:22:05.734Z,35.80
2023-02-11T05:24:32.682Z,37.00
2023-02-11T05:26:59.998Z,38.50
2023-02-11T05:29:26.639Z,44.33
2023-02-11T05:31:53.643Z,44.78
2023-02-11T05:34:20.352Z,42.70
2023-02-11T05:36:47.007Z,38.03
2023-02-11T05:39:13.631Z,42.53
2023-02-11T05:41:40.218Z,42.63
2023-02-11T05:44:06.804Z,48.92
2023-02-11T05:46:33.488Z,50.60
2023-02-11T05:49:00.269Z,46.03
2023-02-11T05:51:28.008Z,49.10
2023-02-11T05:53:54.693Z,39.78
2023-02-11T05:56:21.386Z,50.45
2023-02-11T05:58:48.048Z,54.65
2023-02-11T06:01:14.722Z,58.05
2023-02-11T06:03:41.476Z,67.65
2023-02-11T06:06:12.604Z,74.55
2023-02-11T06:08:39.735Z,71.38
2023-02-11T06:11:06.545Z,60.47
2023-02-11T06:13:33.260Z,63.03
2023-02-11T06:16:01.016Z,60.60
2023-02-11T06:18:27.951Z,50.83
2023-02-11T06:20:54.792Z,50.08
2023-02-11T06:23:22.132Z,38.65
2023-02-11T06:25:49.425Z,48.45
2023-02-11T06:28:16.767Z,50.92
2023-02-11T06:30:43.577Z,79.60
2023-02-11T06:33:10.285Z,60.17
2023-02-11T06:35:39.936Z,64.35
2023-02-11T06:38:06.537Z,58.85
2023-02-11T06:40:33.119Z,67.63
2023-02-11T06:42:59.808Z,43.63
2023-02-11T06:45:26.481Z,52.45
2023-02-11T06:47:53.611Z,44.60
2023-02-11T06:50:20.491Z,58.78
2023-02-11T06:52:47.134Z,48.08
2023-02-11T06:55:14.235Z,48.38
2023-02-11T06:57:41.542Z,56.50
2023-02-11T07:00:09.392Z,43.70
2023-02-11T07:02:36.443Z,46.65
2023-02-11T07:05:03.490Z,53.88
2023-02-11T07:07:34.132Z,60.80
2023-02-11T07:10:04.752Z,57.63
2023-02-11T07:12:32.280Z,46.58
2023-02-11T07:14:59.151Z,49.97
2023-02-11T07:17:25.828Z,41.42
2023-02-11T07:20:00.530Z,39.58
2023-02-11T07:22:27.544Z,36.97
2023-02-11T07:24:54.251Z,56.78
2023-02-11T07:27:20.864Z,36.20
2023-02-11T07:29:48.969Z,36.75
2023-02-11T07:32:15.748Z,43.25
2023-02-11T07:34:42.572Z,34.50
2023-02-11T07:39:52.045Z,40.05
2023-02-11T07:42:19.334Z,47.03
2023-02-11T07:44:49.255Z,41.63
2023-02-11T07:47:17.052Z,39.80
2023-02-11T07:49:43.707Z,43.70
2023-02-11T07:52:10.330Z,41.22
2023-02-11T07:54:37.134Z,47.35
2023-02-11T07:57:03.925Z,45.95
2023-02-11T07:59:30.574Z,47.53
2023-02-11T08:01:57.551Z,37.90
2023-02-11T08:04:24.257Z,40.20
2023-02-11T08:06:52.892Z,40.80
2023-02-11T08:09:19.542Z,45.45
2023-02-11T08:11:46.192Z,43.28
2023-02-11T08:14:13.022Z,37.17
2023-02-11T08:16:40.131Z,52.30
2023-02-11T08:19:11.749Z,50.90
2023-02-11T08:21:39.557Z,37.65
2023-02-11T08:24:13.144Z,43.28
2023-02-11T08:26:42.839Z,47.03
2023-02-11T08:29:12.228Z,46.17
2023-02-11T08:31:41.521Z,50.60
2023-02-11T08:34:10.026Z,47.05
2023-02-11T08:36:38.217Z,43.35
2023-02-11T08:39:18.626Z,38.88
2023-02-11T08:41:49.073Z,36.42
2023-02-11T08:44:16.626Z,35.42
2023-02-11T08:46:43.331Z,36.55
2023-02-11T08:49:10.203Z,41.35
2023-02-11T08:51:37.253Z,32.17
2023-02-11T08:54:04.580Z,31.02
2023-02-11T08:56:33.255Z,35.65
2023-02-11T08:58:59.919Z,31.92
2023-02-11T09:01:29.721Z,33.55
2023-02-11T09:03:58.445Z,34.25
2023-02-11T09:06:26.884Z,30.77
2023-02-11T09:08:57.805Z,33.90
2023-02-11T09:11:30.754Z,33.65
2023-02-11T09:13:57.659Z,31.13
2023-02-11T09:16:27.305Z,32.08
2023-02-11T09:18:57.413Z,32.28
2023-02-11T09:21:24.130Z,32.88
2023-02-11T09:23:51.084Z,39.53
2023-02-11T09:26:23.692Z,35.50
2023-02-11T09:28:51.542Z,33.25
2023-02-11T09:31:21.417Z,29.90
2023-02-11T09:33:50.461Z,26.50
2023-02-11T09:36:20.475Z,36.17
2023-02-11T09:38:48.319Z,29.75
2023-02-11T09:41:24.059Z,29.17
2023-02-11T09:43:59.352Z,28.55
2023-02-11T09:46:43.230Z,26.13
2023-02-11T09:49:21.953Z,27.48
2023-02-11T09:51:53.621Z,29.08
2023-02-11T09:54:34.272Z,30.30
2023-02-11T09:57:01.100Z,30.75
2023-02-11T09:59:28.180Z,27.05
2023-02-11T10:02:35.568Z,25.40
2023-02-11T10:05:23.925Z,23.77
2023-02-11T10:08:16.860Z,28.45
2023-02-11T10:11:07.462Z,24.83
2023-02-11T10:13:48.331Z,28.58
2023-02-11T10:16:55.524Z,28.60
2023-02-11T10:19:42.835Z,26.00
2023-02-11T10:22:17.508Z,24.38
2023-02-11T10:24:53.655Z,30.45
2023-02-11T10:27:29.179Z,25.13
2023-02-11T10:30:07.301Z,17.92
2023-02-11T10:32:49.770Z,23.75
2023-02-11T10:35:22.000Z,29.40
2023-02-11T10:40:28.082Z,19.15
2023-02-11T10:43:01.434Z,20.60
2023-02-11T10:45:35.226Z,22.92
2023-02-11T10:48:06.356Z,28.58
2023-02-11T10:50:35.151Z,26.20
2023-02-11T10:53:20.971Z,26.60
2023-02-11T10:55:54.142Z,21.48
2023-02-11T10:58:30.847Z,23.40
2023-02-11T11:01:00.057Z,18.58
2023-02-11T11:03:32.099Z,18.83
2023-02-11T11:06:02.052Z,25.02
2023-02-11T11:08:40.810Z,22.55
2023-02-11T11:11:13.487Z,16.48
2023-02-11T11:14:03.302Z,17.50
2023-02-11T11:16:35.153Z,18.98
2023-02-11T11:19:08.536Z,18.90
2023-02-11T11:21:41.957Z,23.83
2023-02-11T11:24:18.920Z,18.73
2023-02-11T11:26:48.755Z,22.60
2023-02-11T11:29:18.412Z,20.15
2023-02-11T11:32:04.632Z,24.38
2023-02-11T11:34:43.198Z,19.30
2023-02-11T11:37:31.413Z,19.95
2023-02-11T11:40:18.204Z,16.85
2023-02-11T11:42:45.271Z,19.55
2023-02-11T11:45:27.089Z,18.15
2023-02-11T11:48:12.516Z,16.23
2023-02-11T11:51:00.322Z,17.60
2023-02-11T11:53:55.623Z,18.45
2023-02-11T12:13:29.021Z,19.92
2023-02-11T12:16:07.872Z,13.43
2023-02-11T12:19:14.405Z,15.88
2023-02-11T12:22:20.921Z,16.60
2023-02-11T12:24:56.908Z,11.60
2023-02-11T12:27:45.616Z,18.08
2023-02-11T12:30:51.365Z,14.05
2023-02-11T12:33:38.588Z,17.42
2023-02-11T12:36:27.625Z,17.08
2023-02-11T12:44:58.246Z,22.95
2023-02-11T12:47:43.741Z,20.55
2023-02-11T12:50:34.920Z,12.27
2023-02-11T12:53:23.095Z,16.15
2023-02-11T12:55:56.152Z,14.45
2023-02-11T12:58:42.895Z,13.05
2023-02-11T13:01:26.095Z,13.55
2023-02-11T13:04:14.244Z,16.58
2023-02-11T13:06:50.180Z,14.02
2023-02-11T13:09:33.094Z,17.42
2023-02-11T13:12:26.492Z,14.23
2023-02-11T13:14:59.344Z,13.63
2023-02-11T13:23:06.853Z,14.77
2023-02-11T13:26:05.947Z,15.25
2023-02-11T13:28:42.466Z,15.35
2023-02-11T13:31:27.880Z,16.00
2023-02-11T13:33:59.083Z,15.27
2023-02-11T13:39:09.340Z,21.33
2023-02-11T13:41:40.572Z,15.25
2023-02-11T13:44:10.211Z,20.80
2023-02-11T13:46:57.298Z,16.40
2023-02-11T13:49:51.757Z,14.50
2023-02-11T13:52:34.508Z,12.20
2023-02-11T13:55:25.183Z,13.68
2023-02-11T13:58:07.106Z,17.08
2023-02-11T14:00:33.677Z,15.35
2023-02-11T14:03:31.030Z,14.32
2023-02-11T14:06:30.576Z,15.25
2023-02-11T14:09:09.453Z,14.75
2023-02-11T14:11:47.138Z,13.95
2023-02-11T14:15:02.865Z,13.77
2023-02-11T14:17:33.530Z,13.50
2023-02-11T14:20:04.632Z,14.40
2023-02-11T14:22:44.245Z,14.50
2023-02-11T14:25:22.988Z,10.43
2023-02-11T14:28:08.105Z,17.90
2023-02-11T14:30:52.188Z,13.98
2023-02-11T14:33:47.890Z,11.48
2023-02-11T14:36:29.796Z,15.88
2023-02-11T14:39:11.597Z,24.63
2023-02-11T14:41:47.290Z,15.15
2023-02-11T14:44:30.117Z,16.92
2023-02-11T14:46:58.088Z,10.88
2023-02-11T14:49:39.539Z,16.85
2023-02-11T14:52:14.695Z,15.80
2023-02-11T14:54:44.653Z,16.30
2023-02-11T14:57:18.359Z,18.27
2023-02-11T15:00:03.575Z,17.33
2023-02-11T15:02:35.374Z,22.65
2023-02-11T15:05:29.021Z,15.23
2023-02-11T15:08:00.032Z,17.17
2023-02-11T15:10:41.921Z,19.23
2023-02-11T15:13:13.974Z,15.90
2023-02-11T15:15:40.966Z,15.65
2023-02-11T15:18:09.713Z,16.83
2023-02-11T15:20:37.065Z,16.13
2023-02-11T15:23:08.593Z,17.00
2023-02-11T15:25:43.034Z,14.68
2023-02-11T15:28:30.893Z,18.70
2023-02-11T15:31:00.469Z,15.73
2023-02-11T15:33:30.257Z,18.75
2023-02-11T15:35:57.747Z,20.27
2023-02-11T15:38:24.660Z,22.63
2023-02-11T15:40:58.328Z,21.98
2023-02-11T15:43:25.425Z,26.27
2023-02-11T15:45:51.921Z,26.50
2023-02-11T15:48:47.228Z,21.70
2023-02-11T15:51:30.113Z,25.60
2023-02-11T15:53:59.689Z,27.23
2023-02-11T15:56:30.700Z,19.85
2023-02-11T15:59:00.738Z,27.27
2023-02-11T16:01:36.570Z,25.38
2023-02-11T16:04:04.976Z,20.45
2023-02-11T16:06:42.795Z,24.55
2023-02-11T16:09:10.228Z,23.10
2023-02-11T16:11:45.961Z,21.13
2023-02-11T16:14:42.212Z,24.52
2023-02-11T16:17:13.264Z,16.83
2023-02-11T16:19:47.935Z,20.17
2023-02-11T16:22:19.282Z,22.17
2023-02-11T16:24:48.615Z,22.63
2023-02-11T16:27:31.271Z,21.27
2023-02-11T16:29:58.806Z,20.83
2023-02-11T16:32:29.834Z,18.25
2023-02-11T16:34:59.440Z,22.20
2023-02-11T16:37:26.372Z,17.48
2023-02-11T16:39:58.108Z,21.50
2023-02-11T16:42:25.254Z,16.40
2023-02-11T16:44:52.040Z,21.13
2023-02-11T16:47:28.699Z,19.75
2023-02-11T16:49:56.209Z,27.88
2023-02-11T16:52:24.407Z,21.60
2023-02-11T16:54:51.268Z,23.15
2023-02-11T16:57:23.230Z,18.20
2023-02-11T16:59:49.847Z,18.00
2023-02-11T17:02:28.525Z,19.27
2023-02-11T17:04:58.172Z,23.02
2023-02-11T17:07:24.820Z,28.67
2023-02-11T17:09:52.301Z,29.27
2023-02-11T17:12:19.737Z,23.73
2023-02-11T17:14:46.400Z,18.73
2023-02-11T17:17:13.494Z,26.30
2023-02-11T17:19:40.153Z,21.92
2023-02-11T17:22:06.933Z,21.17
2023-02-11T17:24:33.532Z,27.48
2023-02-11T17:27:00.241Z,22.15
2023-02-11T17:29:27.196Z,28.92
2023-02-11T17:31:54.047Z,25.52
2023-02-11T17:34:22.337Z,21.63
2023-02-11T17:36:49.214Z,23.65
2023-02-11T17:39:15.931Z,20.45
2023-02-11T17:41:42.772Z,27.10
2023-02-11T17:44:12.531Z,22.20
2023-02-11T17:46:39.172Z,29.08
2023-02-11T17:49:05.866Z,42.08
2023-02-11T17:51:37.765Z,39.10
2023-02-11T17:54:11.918Z,52.42
2023-02-11T17:56:39.210Z,78.53
2023-02-11T17:59:06.861Z,114.72
2023-02-11T18:01:34.559Z,100.80
2023-02-11T18:04:01.699Z,98.78
2023-02-11T18:06:31.562Z,85.90
2023-02-11T18:08:59.890Z,184.93
2023-02-11T18:11:27.946Z,48.63
2023-02-11T18:13:54.765Z,46.78
2023-02-11T18:16:23.128Z,29.08
2023-02-11T18:18:50.581Z,33.70
2023-02-11T18:21:20.413Z,37.65
2023-02-11T18:23:47.773Z,33.05
2023-02-11T18:26:16.978Z,23.63
2023-02-11T18:28:45.989Z,24.48
2023-02-11T18:31:14.071Z,35.92
2023-02-11T18:33:42.235Z,31.48
2023-02-11T18:36:11.553Z,21.65
2023-02-11T18:38:38.668Z,27.08
2023-02-11T18:41:05.721Z,21.85
2023-02-11T18:43:33.777Z,23.05
2023-02-11T18:46:02.159Z,25.73
2023-02-11T18:48:29.066Z,22.27
2023-02-11T18:50:56.142Z,20.67
2023-02-11T18:53:24.682Z,20.42
2023-02-11T18:55:52.662Z,21.42
2023-02-11T18:58:21.204Z,21.52
2023-02-11T19:00:49.034Z,23.88
2023-02-11T19:03:16.077Z,19.20
2023-02-11T19:05:48.136Z,19.23
2023-02-11T19:08:15.335Z,20.25
2023-02-11T19:10:44.515Z,18.42
2023-02-11T19:13:11.716Z,19.77
2023-02-11T19:15:43.382Z,22.48
2023-02-11T19:18:10.748Z,24.45
2023-02-11T19:20:42.034Z,26.35
2023-02-11T19:23:09.274Z,35.37
2023-02-11T19:25:36.245Z,29.90
2023-02-11T19:28:03.939Z,32.60
2023-02-11T19:30:30.773Z,25.83
2023-02-11T19:32:57.793Z,37.65
2023-02-11T19:35:25.382Z,28.95
2023-02-11T19:37:52.055Z,37.25
2023-02-11T19:40:21.270Z,32.38
2023-02-11T19:42:48.053Z,30.05
2023-02-11T19:45:14.791Z,32.30
2023-02-11T19:47:41.518Z,26.23
2023-02-11T19:50:08.673Z,22.95
2023-02-11T19:52:38.312Z,20.98
2023-02-11T19:55:05.209Z,19.23
2023-02-11T19:57:31.906Z,15.38
2023-02-11T19:59:58.570Z,15.45
2023-02-11T20:02:25.264Z,44.40
2023-02-11T20:04:51.897Z,18.42
2023-02-11T20:07:18.558Z,16.15
2023-02-11T20:09:45.183Z,16.42
2023-02-11T20:12:12.137Z,19.45
2023-02-11T20:14:38.911Z,15.60
2023-02-11T20:17:05.584Z,21.30
2023-02-11T20:19:32.375Z,16.63
2023-02-11T20:21:58.940Z,16.92
2023-02-11T20:24:26.178Z,18.27
2023-02-11T20:26:55.936Z,17.73
2023-02-11T20:29:24.057Z,17.42
2023-02-11T20:31:50.948Z,13.27
2023-02-11T20:34:18.178Z,18.92
2023-02-11T20:36:52.057Z,20.83
2023-02-11T20:39:21.761Z,15.55
2023-02-11T20:41:49.208Z,17.27
2023-02-11T20:44:16.258Z,17.17
2023-02-11T20:46:48.087Z,18.63
2023-02-11T20:49:18.950Z,18.83
2023-02-11T20:51:46.455Z,14.48
2023-02-11T20:54:15.500Z,18.23
2023-02-11T20:56:42.762Z,16.25
2023-02-11T20:59:09.783Z,19.50
2023-02-11T21:01:43.002Z,15.57
2023-02-11T21:04:15.618Z,22.58
2023-02-11T21:06:44.725Z,19.23
2023-02-11T21:09:15.016Z,21.10
2023-02-11T21:11:42.366Z,24.25
2023-02-11T21:14:10.364Z,21.38
2023-02-11T21:16:37.250Z,21.58
2023-02-11T21:19:04.516Z,21.40
2023-02-11T21:21:31.768Z,21.55
2023-02-11T21:23:58.699Z,20.42
2023-02-11T21:26:25.767Z,22.40
2023-02-11T21:28:52.336Z,29.45
2023-02-11T21:31:23.062Z,20.42
2023-02-11T21:33:50.988Z,19.90
2023-02-11T21:36:17.989Z,16.10
2023-02-11T21:38:44.926Z,23.67
2023-02-11T21:41:11.674Z,18.77
2023-02-11T21:43:38.499Z,17.20
2023-02-11T21:46:10.771Z,14.20
2023-02-11T21:48:37.901Z,19.05
2023-02-11T21:51:25.937Z,18.40
2023-02-11T21:53:56.381Z,16.52
2023-02-11T21:56:23.856Z,13.45
2023-02-11T21:58:53.434Z,14.32
2023-02-11T22:01:28.979Z,16.08
2023-02-11T22:03:55.936Z,13.68
2023-02-11T22:06:30.931Z,13.48
2023-02-11T22:08:58.064Z,15.65
2023-02-11T22:11:25.027Z,15.15
2023-02-11T22:13:56.370Z,21.23
2023-02-11T22:16:23.941Z,19.38
2023-02-11T22:18:51.504Z,26.98
2023-02-11T22:21:20.843Z,18.52
2023-02-11T22:23:47.983Z,16.55
2023-02-11T22:26:21.486Z,18.48
2023-02-11T22:28:48.913Z,17.58
2023-02-11T22:31:22.276Z,13.75
2023-02-11T22:33:49.071Z,13.90
2023-02-11T22:36:19.073Z,17.42
2023-02-11T22:38:45.794Z,13.77
2023-02-11T22:41:12.957Z,15.00
2023-02-11T22:43:41.848Z,14.82
2023-02-11T22:46:09.427Z,18.80
2023-02-11T22:48:36.117Z,19.63
2023-02-11T22:51:11.239Z,16.85
2023-02-11T22:53:37.897Z,13.55
2023-02-11T22:56:15.333Z,14.32
2023-02-11T22:58:42.543Z,11.52
2023-02-11T23:01:09.216Z,15.88
2023-02-11T23:03:36.530Z,13.27
2023-02-11T23:06:03.540Z,18.60
2023-02-11T23:08:31.642Z,14.88
2023-02-11T23:11:24.399Z,18.85
2023-02-11T23:13:52.318Z,15.95
2023-02-11T23:16:23.648Z,22.58
2023-02-11T23:18:51.144Z,18.83
2023-02-11T23:21:23.613Z,20.17
2023-02-11T23:23:55.161Z,19.58
2023-02-11T23:26:21.841Z,18.58
2023-02-11T23:28:48.490Z,19.40
2023-02-11T23:31:21.852Z,19.13
2023-02-11T23:33:49.424Z,19.20
2023-02-11T23:36:18.376Z,19.63
2023-02-11T23:38:45.562Z,18.35
2023-02-11T23:41:12.482Z,19.02
2023-02-11T23:43:39.367Z,21.48
2023-02-11T23:46:06.674Z,18.30
2023-02-11T23:48:33.892Z,19.70
2023-02-11T23:51:00.404Z,14.25
2023-02-11T23:53:27.142Z,17.75
2023-02-11T23:55:54.039Z,14.40
2023-02-11T23:58:20.973Z,18.90
